createdAt,value
2022-12-09T00:00:51.651Z,61.56
2022-12-09T00:04:00.677Z,62.36
2022-12-09T00:07:07.204Z,63.10
2022-12-09T00:10:13.074Z,62.85
2022-12-09T00:13:19.444Z,63.39
2022-12-09T00:16:27.424Z,63.65
2022-12-09T00:19:36.735Z,62.65
2022-12-09T00:22:42.629Z,63.38
2022-12-09T00:25:48.796Z,62.43
2022-12-09T00:28:56.144Z,62.64
2022-12-09T00:32:02.393Z,63.42
2022-12-09T00:35:11.672Z,63.08
2022-12-09T00:38:17.824Z,63.54
2022-12-09T00:41:23.421Z,64.29
2022-12-09T00:44:30.627Z,63.70
2022-12-09T00:47:36.019Z,64.13
2022-12-09T00:50:45.182Z,63.62
2022-12-09T00:53:54.969Z,64.42
2022-12-09T00:57:01.214Z,63.58
2022-12-09T01:00:08.232Z,63.79
2022-12-09T01:03:17.707Z,63.94
2022-12-09T01:06:28.779Z,63.19
2022-12-09T01:09:37.777Z,63.24
2022-12-09T01:12:43.572Z,63.93
2022-12-09T01:15:49.977Z,63.72
2022-12-09T01:18:57.601Z,63.99
2022-12-09T01:22:07.344Z,63.24
2022-12-09T01:25:13.466Z,62.88
2022-12-09T01:28:20.344Z,63.51
2022-12-09T01:31:28.356Z,63.20
2022-12-09T01:34:34.991Z,63.42
2022-12-09T01:37:43.200Z,63.75
2022-12-09T01:40:49.879Z,62.95
2022-12-09T01:44:22.605Z,62.70
2022-12-09T01:47:28.918Z,63.10
2022-12-09T01:50:39.516Z,63.52
2022-12-09T01:53:53.665Z,64.06
2022-12-09T01:56:59.803Z,64.47
2022-12-09T02:00:08.150Z,64.41
2022-12-09T02:03:22.324Z,64.49
2022-12-09T02:06:28.939Z,64.07
2022-12-09T02:09:37.616Z,63.94
2022-12-09T02:12:59.334Z,64.59
2022-12-09T02:16:16.510Z,63.29
2022-12-09T02:19:50.503Z,63.20
2022-12-09T02:23:09.445Z,63.61
2022-12-09T02:26:33.733Z,63.83
2022-12-09T02:30:07.050Z,64.06
2022-12-09T02:33:42.890Z,63.99
2022-12-09T02:37:09.744Z,63.31
2022-12-09T02:40:27.501Z,63.26
2022-12-09T02:43:49.466Z,63.51
2022-12-09T02:47:00.873Z,63.50
2022-12-09T02:50:15.493Z,64.61
2022-12-09T02:53:29.622Z,63.44
2022-12-09T02:56:39.087Z,63.95
2022-12-09T02:59:45.021Z,64.00
2022-12-09T03:02:59.609Z,64.77
2022-12-09T03:06:13.362Z,64.85
2022-12-09T03:09:31.876Z,64.66
2022-12-09T03:12:43.942Z,64.92
2022-12-09T03:16:00.345Z,65.03
2022-12-09T03:19:18.526Z,64.72
2022-12-09T03:22:33.259Z,65.07
2022-12-09T03:25:51.661Z,66.09
2022-12-09T03:29:01.210Z,66.28
2022-12-09T03:32:07.634Z,66.23
2022-12-09T03:35:23.727Z,65.45
2022-12-09T03:38:37.909Z,65.62
2022-12-09T03:41:53.108Z,65.61
2022-12-09T03:45:06.093Z,65.21
2022-12-09T03:48:14.677Z,65.17
2022-12-09T03:51:31.384Z,65.45
2022-12-09T03:54:47.245Z,66.04
2022-12-09T03:58:03.709Z,65.47
2022-12-09T04:01:10.846Z,65.22
2022-12-09T04:04:16.949Z,65.86
2022-12-09T04:07:23.508Z,66.26
2022-12-09T04:10:29.727Z,65.64
2022-12-09T04:13:39.992Z,65.10
2022-12-09T04:16:46.100Z,65.56
2022-12-09T04:19:52.906Z,64.70
2022-12-09T04:22:59.588Z,64.72
2022-12-09T04:26:06.733Z,65.05
2022-12-09T04:29:16.538Z,65.39
2022-12-09T04:32:23.258Z,64.60
2022-12-09T04:35:28.712Z,65.69
2022-12-09T04:38:34.970Z,65.51
2022-12-09T04:41:40.885Z,65.20
2022-12-09T04:44:50.281Z,65.79
2022-12-09T04:47:55.945Z,64.73
2022-12-09T04:51:03.223Z,65.02
2022-12-09T04:54:08.983Z,65.34
2022-12-09T04:57:15.358Z,64.87
2022-12-09T05:00:25.280Z,65.57
2022-12-09T05:03:32.379Z,65.36
2022-12-09T05:06:38.714Z,65.04
2022-12-09T05:09:45.267Z,63.83
2022-12-09T05:12:50.844Z,64.12
2022-12-09T05:16:04.312Z,64.76
2022-12-09T05:19:11.510Z,63.61
2022-12-09T05:22:20.631Z,63.78
2022-12-09T05:25:27.085Z,64.80
2022-12-09T05:28:34.526Z,64.28
2022-12-09T05:31:43.359Z,64.34
2022-12-09T05:34:49.668Z,64.95
2022-12-09T05:37:55.411Z,65.32
2022-12-09T05:41:02.834Z,65.63
2022-12-09T05:44:08.903Z,65.44
2022-12-09T05:47:18.458Z,64.65
2022-12-09T05:50:24.112Z,65.00
2022-12-09T05:53:31.472Z,66.01
2022-12-09T05:56:37.252Z,65.38
2022-12-09T05:59:44.953Z,66.31
2022-12-09T06:02:53.499Z,66.03
2022-12-09T06:06:00.043Z,66.51
2022-12-09T06:09:08.735Z,66.50
2022-12-09T06:12:15.234Z,66.04
2022-12-09T06:15:22.083Z,65.82
2022-12-09T06:18:33.120Z,66.02
2022-12-09T06:21:41.854Z,66.20
2022-12-09T06:24:51.130Z,66.15
2022-12-09T06:28:00.949Z,66.12
2022-12-09T06:31:07.962Z,66.18
2022-12-09T06:34:16.586Z,66.80
2022-12-09T06:37:23.069Z,66.24
2022-12-09T06:40:28.979Z,66.09
2022-12-09T06:43:35.718Z,66.39
2022-12-09T06:46:42.357Z,66.05
2022-12-09T06:49:52.362Z,65.83
2022-12-09T06:52:57.980Z,65.03
2022-12-09T06:56:11.509Z,65.96
2022-12-09T06:59:17.571Z,65.13
2022-12-09T07:02:24.782Z,65.08
2022-12-09T07:05:35.220Z,65.81
2022-12-09T07:08:41.829Z,65.92
2022-12-09T07:11:49.018Z,65.38
2022-12-09T07:14:55.301Z,65.68
2022-12-09T07:18:01.154Z,66.05
2022-12-09T07:21:18.780Z,64.83
2022-12-09T07:24:24.377Z,64.78
2022-12-09T07:27:30.995Z,65.37
2022-12-09T07:30:36.782Z,64.63
2022-12-09T07:33:43.123Z,64.97
2022-12-09T07:36:52.632Z,64.52
2022-12-09T07:40:01.067Z,65.11
2022-12-09T07:43:07.544Z,64.25
2022-12-09T07:46:13.485Z,65.32
2022-12-09T07:49:20.936Z,64.56
2022-12-09T07:52:29.519Z,64.10
2022-12-09T07:55:38.138Z,64.22
2022-12-09T07:58:45.840Z,65.00
2022-12-09T08:01:52.303Z,64.20
2022-12-09T08:04:57.784Z,64.42
2022-12-09T08:08:07.721Z,63.89
2022-12-09T08:11:17.952Z,63.96
2022-12-09T08:14:24.634Z,64.57
2022-12-09T08:17:31.025Z,64.21
2022-12-09T08:20:37.800Z,62.71
2022-12-09T08:23:47.243Z,62.43
2022-12-09T08:26:54.404Z,62.95
2022-12-09T08:30:07.448Z,62.88
2022-12-09T08:33:14.266Z,62.75
2022-12-09T08:36:23.900Z,63.58
2022-12-09T08:39:33.707Z,63.06
2022-12-09T08:42:39.272Z,62.13
2022-12-09T08:45:46.125Z,62.02
2022-12-09T08:48:52.020Z,62.25
2022-12-09T08:51:59.071Z,61.70
2022-12-09T08:55:08.128Z,61.68
2022-12-09T08:58:14.327Z,60.98
2022-12-09T09:01:23.518Z,60.97
2022-12-09T09:04:30.051Z,61.05
2022-12-09T09:07:36.536Z,62.19
2022-12-09T09:10:46.215Z,61.18
2022-12-09T09:13:54.579Z,61.06
2022-12-09T09:17:01.049Z,61.29
2022-12-09T09:20:08.073Z,61.34
2022-12-09T09:23:15.105Z,61.22
2022-12-09T09:26:28.202Z,60.22
2022-12-09T09:29:35.073Z,60.63
2022-12-09T09:32:41.373Z,60.57
2022-12-09T09:35:48.027Z,60.25
2022-12-09T09:39:02.957Z,59.01
2022-12-09T09:42:40.993Z,58.68
2022-12-09T09:45:49.138Z,59.29
2022-12-09T09:49:06.852Z,59.41
2022-12-09T09:52:22.640Z,58.35
2022-12-09T09:55:46.753Z,57.98
2022-12-09T09:59:19.592Z,58.26
2022-12-09T10:02:53.580Z,57.79
2022-12-09T10:06:07.721Z,57.17
2022-12-09T10:09:24.842Z,57.03
2022-12-09T10:12:50.670Z,55.91
2022-12-09T10:16:21.077Z,55.29
2022-12-09T10:19:36.987Z,55.51
2022-12-09T10:22:49.775Z,55.34
2022-12-09T10:26:01.266Z,56.37
2022-12-09T10:29:22.109Z,55.40
2022-12-09T10:32:35.457Z,55.39
2022-12-09T10:35:42.498Z,55.20
2022-12-09T10:38:49.457Z,54.51
2022-12-09T10:42:16.845Z,54.54
2022-12-09T10:45:23.042Z,54.08
2022-12-09T10:48:37.876Z,53.87
2022-12-09T10:51:54.077Z,54.30
2022-12-09T10:55:01.847Z,53.72
2022-12-09T10:58:20.425Z,52.63
2022-12-09T11:01:27.185Z,53.67
2022-12-09T11:04:40.761Z,53.64
2022-12-09T11:07:52.388Z,53.65
2022-12-09T11:10:59.377Z,53.68
2022-12-09T11:14:06.895Z,53.67
2022-12-09T11:17:21.023Z,54.62
2022-12-09T11:20:34.614Z,54.46
2022-12-09T11:23:40.966Z,54.48
2022-12-09T11:26:47.756Z,54.52
2022-12-09T11:30:13.800Z,54.07
2022-12-09T11:33:31.570Z,54.34
2022-12-09T11:36:48.475Z,54.31
2022-12-09T11:39:55.444Z,54.57
2022-12-09T11:43:04.363Z,54.72
2022-12-09T11:46:25.009Z,54.63
2022-12-09T11:49:36.076Z,54.61
2022-12-09T11:52:46.836Z,54.16
2022-12-09T11:56:04.178Z,54.34
2022-12-09T11:59:19.562Z,54.61
2022-12-09T12:02:38.228Z,54.13
2022-12-09T12:05:47.846Z,53.93
2022-12-09T12:09:15.737Z,53.95
2022-12-09T12:12:38.393Z,54.54
2022-12-09T12:15:55.230Z,54.27
2022-12-09T12:19:16.782Z,54.50
2022-12-09T12:22:59.283Z,54.62
2022-12-09T12:26:22.078Z,54.57
2022-12-09T12:29:45.255Z,54.48
2022-12-09T12:37:10.811Z,54.91
2022-12-09T12:40:39.852Z,54.82
2022-12-09T12:44:32.160Z,54.47
2022-12-09T12:47:53.567Z,54.37
2022-12-09T12:51:23.418Z,54.43
2022-12-09T12:54:49.737Z,55.27
2022-12-09T12:58:10.972Z,55.68
2022-12-09T13:01:33.044Z,55.11
2022-12-09T13:04:51.075Z,55.25
2022-12-09T13:08:08.065Z,55.79
2022-12-09T13:11:23.678Z,55.95
2022-12-09T13:14:46.193Z,55.52
2022-12-09T13:17:58.693Z,56.00
2022-12-09T13:21:08.000Z,56.32
2022-12-09T13:24:34.816Z,55.91
2022-12-09T13:27:54.403Z,55.19
2022-12-09T13:31:03.456Z,54.94
2022-12-09T13:34:40.403Z,56.02
2022-12-09T13:38:03.583Z,55.40
2022-12-09T13:42:04.288Z,55.87
2022-12-09T13:45:21.496Z,55.60
2022-12-09T13:48:53.321Z,55.81
2022-12-09T13:52:01.586Z,55.62
2022-12-09T13:55:20.175Z,56.96
2022-12-09T13:59:28.125Z,56.72
2022-12-09T14:02:43.583Z,56.93
2022-12-09T14:05:52.513Z,56.37
2022-12-09T14:09:09.709Z,57.24
2022-12-09T14:12:18.761Z,56.86
2022-12-09T14:15:41.363Z,58.15
2022-12-09T14:18:47.780Z,57.87
2022-12-09T14:22:37.119Z,57.65
2022-12-09T14:26:11.352Z,57.45
2022-12-09T14:29:56.021Z,58.36
2022-12-09T14:33:01.568Z,58.53
2022-12-09T14:36:26.496Z,57.88
2022-12-09T14:39:46.764Z,58.61
2022-12-09T14:43:12.677Z,58.93
2022-12-09T14:46:30.078Z,59.01
2022-12-09T14:49:44.970Z,59.54
2022-12-09T14:53:00.757Z,59.80
2022-12-09T14:56:08.739Z,61.09
2022-12-09T14:59:25.315Z,60.24
2022-12-09T15:02:33.941Z,60.91
2022-12-09T15:05:39.724Z,61.88
2022-12-09T15:08:45.997Z,61.23
2022-12-09T15:11:51.828Z,61.10
2022-12-09T15:15:08.932Z,60.79
2022-12-09T15:18:26.095Z,62.41
2022-12-09T15:21:35.914Z,61.98
2022-12-09T15:24:50.669Z,62.77
2022-12-09T15:28:04.708Z,62.84
2022-12-09T15:31:21.225Z,62.84
2022-12-09T15:34:30.093Z,63.80
2022-12-09T15:37:36.528Z,64.37
2022-12-09T15:41:07.149Z,64.13
2022-12-09T15:44:21.036Z,64.35
2022-12-09T15:47:40.154Z,65.24
2022-12-09T15:50:57.043Z,64.24
2022-12-09T15:54:09.941Z,64.94
2022-12-09T15:57:22.531Z,65.25
2022-12-09T16:00:29.422Z,65.93
2022-12-09T16:03:40.667Z,65.40
2022-12-09T16:06:50.239Z,65.12
2022-12-09T16:10:14.758Z,66.24
2022-12-09T16:13:23.931Z,65.08
2022-12-09T16:16:42.228Z,66.61
2022-12-09T16:19:51.776Z,65.45
2022-12-09T16:22:57.399Z,64.75
2022-12-09T16:26:07.611Z,65.37
2022-12-09T16:29:28.169Z,64.91
2022-12-09T16:32:44.019Z,66.01
2022-12-09T16:36:03.696Z,65.67
2022-12-09T16:39:38.272Z,65.62
2022-12-09T16:42:43.770Z,65.99
2022-12-09T16:45:53.637Z,65.60
2022-12-09T16:49:04.666Z,65.80
2022-12-09T16:52:20.662Z,66.17
2022-12-09T16:55:29.412Z,66.51
2022-12-09T16:58:39.035Z,66.59
2022-12-09T17:01:46.058Z,67.60
2022-12-09T17:04:54.336Z,67.48
2022-12-09T17:08:02.538Z,67.18
2022-12-09T17:11:09.489Z,67.30
2022-12-09T17:14:14.913Z,67.37
2022-12-09T17:17:21.460Z,68.17
2022-12-09T17:20:27.373Z,67.63
2022-12-09T17:23:40.195Z,67.62
2022-12-09T17:26:46.016Z,67.09
2022-12-09T17:29:52.441Z,67.83
2022-12-09T17:32:58.104Z,67.39
2022-12-09T17:36:04.774Z,67.86
2022-12-09T17:39:15.178Z,68.27
2022-12-09T17:42:21.420Z,67.94
2022-12-09T17:45:27.001Z,67.85
2022-12-09T17:48:37.299Z,68.18
2022-12-09T17:51:43.785Z,68.25
2022-12-09T17:54:53.054Z,68.09
2022-12-09T17:57:58.534Z,68.58
2022-12-09T18:01:08.499Z,68.60
2022-12-09T18:04:18.965Z,68.58
2022-12-09T18:07:25.226Z,68.69
2022-12-09T18:10:33.449Z,69.11
2022-12-09T18:13:41.677Z,69.11
2022-12-09T18:16:49.353Z,68.80
2022-12-09T18:19:56.986Z,68.64
2022-12-09T18:23:02.644Z,69.38
2022-12-09T18:26:17.390Z,68.93
2022-12-09T18:29:23.140Z,68.96
2022-12-09T18:32:35.740Z,68.71
2022-12-09T18:35:43.328Z,69.50
2022-12-09T18:38:50.646Z,69.50
2022-12-09T18:41:58.784Z,69.43
2022-12-09T18:45:05.130Z,69.87
2022-12-09T18:48:10.597Z,69.30
2022-12-09T18:51:20.121Z,69.25
2022-12-09T18:54:28.477Z,69.51
2022-12-09T18:57:37.512Z,69.57
2022-12-09T19:00:42.902Z,69.37
2022-12-09T19:03:50.799Z,70.03
2022-12-09T19:07:00.485Z,69.98
2022-12-09T19:10:08.129Z,70.16
2022-12-09T19:13:16.355Z,70.26
2022-12-09T19:16:24.498Z,70.43
2022-12-09T19:19:31.288Z,70.57
2022-12-09T19:22:37.634Z,70.39
2022-12-09T19:25:44.329Z,70.57
2022-12-09T19:28:57.287Z,70.72
2022-12-09T19:32:23.553Z,70.85
2022-12-09T19:35:33.857Z,70.97
2022-12-09T19:38:39.460Z,71.10
2022-12-09T19:41:47.466Z,71.12
2022-12-09T19:45:05.482Z,70.85
2022-12-09T19:48:15.508Z,70.81
2022-12-09T19:51:22.790Z,70.92
2022-12-09T19:54:29.881Z,70.78
2022-12-09T19:57:35.270Z,70.93
2022-12-09T20:00:44.287Z,70.45
2022-12-09T20:03:53.973Z,70.38
2022-12-09T20:07:04.873Z,71.00
2022-12-09T20:10:13.543Z,70.56
2022-12-09T20:13:20.046Z,70.87
2022-12-09T20:16:29.684Z,70.78
2022-12-09T20:19:36.939Z,70.51
2022-12-09T20:22:43.044Z,70.45
2022-12-09T20:25:49.473Z,70.38
2022-12-09T20:28:58.042Z,70.71
2022-12-09T20:32:07.662Z,70.39
2022-12-09T20:35:13.856Z,70.29
2022-12-09T20:38:20.399Z,70.24
2022-12-09T20:41:28.387Z,70.47
2022-12-09T20:44:35.345Z,70.29
2022-12-09T20:47:43.545Z,70.10
2022-12-09T20:50:49.818Z,70.17
2022-12-09T20:53:56.853Z,70.41
2022-12-09T20:57:03.916Z,70.14
2022-12-09T21:00:11.185Z,70.45
2022-12-09T21:03:20.779Z,70.77
2022-12-09T21:06:30.411Z,70.39
2022-12-09T21:09:36.811Z,70.17
2022-12-09T21:12:42.165Z,70.17
2022-12-09T21:15:48.398Z,70.24
2022-12-09T21:18:59.815Z,70.49
2022-12-09T21:22:07.392Z,70.10
2022-12-09T21:25:13.771Z,70.51
2022-12-09T21:28:20.210Z,70.68
2022-12-09T21:31:30.278Z,70.60
2022-12-09T21:34:39.477Z,70.23
2022-12-09T21:37:45.355Z,70.71
2022-12-09T21:40:52.260Z,69.97
2022-12-09T21:43:58.199Z,70.28
2022-12-09T21:47:04.431Z,70.56
2022-12-09T21:50:13.170Z,70.55
2022-12-09T21:53:20.060Z,70.67
2022-12-09T21:56:30.408Z,70.74
2022-12-09T21:59:36.643Z,69.77
2022-12-09T22:02:43.605Z,70.39
2022-12-09T22:05:58.121Z,70.57
2022-12-09T22:09:08.418Z,70.65
2022-12-09T22:12:14.672Z,70.45
2022-12-09T22:15:20.480Z,69.89
2022-12-09T22:18:27.069Z,70.59
2022-12-09T22:21:36.845Z,70.18
2022-12-09T22:24:43.360Z,70.41
2022-12-09T22:27:48.818Z,70.24
2022-12-09T22:30:55.115Z,69.74
2022-12-09T22:34:05.796Z,70.15
2022-12-09T22:37:42.028Z,69.64
2022-12-09T22:40:40.719Z,69.73
2022-12-09T22:43:48.419Z,70.29
2022-12-09T22:46:54.133Z,70.29
2022-12-09T22:50:00.452Z,70.29
2022-12-09T22:53:08.829Z,70.57
2022-12-09T22:56:15.881Z,70.44
2022-12-09T22:59:21.806Z,70.18
2022-12-09T23:02:28.168Z,70.00
2022-12-09T23:05:35.003Z,69.91
2022-12-09T23:08:47.121Z,70.25
2022-12-09T23:11:54.360Z,70.17
2022-12-09T23:15:00.613Z,69.94
2022-12-09T23:18:06.883Z,70.49
2022-12-09T23:21:19.869Z,70.49
2022-12-09T23:24:31.026Z,70.61
2022-12-09T23:27:37.895Z,70.20
2022-12-09T23:30:43.307Z,70.76
2022-12-09T23:33:52.224Z,71.10
2022-12-09T23:36:57.581Z,71.20
2022-12-09T23:40:07.524Z,71.18
2022-12-09T23:43:13.115Z,70.94
2022-12-09T23:46:23.254Z,71.17
2022-12-09T23:49:28.694Z,71.42
2022-12-09T23:52:38.430Z,71.83
2022-12-09T23:55:47.493Z,71.17
2022-12-09T23:58:58.655Z,71.35
